createdAt,value
2018-12-13T00:01:47.647Z,97127.15
2018-12-13T00:06:42.317Z,97133.71
2018-12-13T00:11:36.976Z,97136.98
2018-12-13T00:16:32.803Z,97126.37
2018-12-13T00:21:28.652Z,97118.75
2018-12-13T00:26:23.305Z,97113.05
2018-12-13T00:31:17.975Z,97105.70
2018-12-13T00:36:12.575Z,97098.77
2018-12-13T00:41:07.333Z,97088.70
2018-12-13T00:46:02.038Z,97086.57
2018-12-13T00:50:57.676Z,97075.78
2018-12-13T00:55:52.297Z,97072.58
2018-12-13T01:00:46.955Z,97069.70
2018-12-13T01:05:41.622Z,97072.91
2018-12-13T01:10:36.657Z,97060.45
2018-12-13T01:15:34.381Z,97070.39
2018-12-13T01:20:28.996Z,97067.84
2018-12-13T01:25:23.608Z,97067.74
2018-12-13T01:30:18.317Z,97074.04
2018-12-13T01:35:12.934Z,97061.29
2018-12-13T01:40:07.715Z,97062.88
2018-12-13T01:45:02.351Z,97056.94
2018-12-13T01:49:56.980Z,97053.70
2018-12-13T01:54:51.611Z,97056.48
2018-12-13T01:59:46.440Z,97055.23
2018-12-13T02:04:41.340Z,97041.77
2018-12-13T02:09:36.056Z,97028.92
2018-12-13T02:14:30.688Z,97024.77
2018-12-13T02:19:25.475Z,97018.63
2018-12-13T02:24:20.248Z,97012.15
2018-12-13T02:29:14.975Z,96999.73
2018-12-13T02:34:09.718Z,96986.59
2018-12-13T02:39:05.641Z,96983.75
2018-12-13T02:44:00.277Z,96980.55
2018-12-13T02:49:06.846Z,96978.75
2018-12-13T02:54:01.649Z,96969.27
2018-12-13T02:58:56.352Z,96969.04
2018-12-13T03:03:51.017Z,96957.12
2018-12-13T03:08:45.660Z,96950.28
2018-12-13T03:13:40.310Z,96944.83
2018-12-13T03:18:35.034Z,96940.74
2018-12-13T03:23:29.685Z,96932.97
2018-12-13T03:28:24.327Z,96935.31
2018-12-13T03:33:18.934Z,96937.16
2018-12-13T03:38:13.522Z,96930.16
2018-12-13T03:43:08.175Z,96920.97
2018-12-13T03:48:03.424Z,96913.87
2018-12-13T03:52:58.116Z,96915.17
2018-12-13T03:57:52.833Z,96912.94
2018-12-13T04:02:47.541Z,96914.37
2018-12-13T04:07:42.165Z,96907.77
2018-12-13T04:12:36.790Z,96908.05
2018-12-13T04:17:31.404Z,96902.65
2018-12-13T04:22:26.062Z,96898.89
2018-12-13T04:27:20.768Z,96899.13
2018-12-13T04:32:15.387Z,96893.41
2018-12-13T04:37:10.041Z,96892.89
2018-12-13T04:42:04.831Z,96886.88
2018-12-13T04:46:59.625Z,96888.70
2018-12-13T04:51:54.232Z,96884.16
2018-12-13T04:56:48.869Z,96879.62
2018-12-13T05:01:43.575Z,96872.41
2018-12-13T05:06:38.253Z,96867.98
2018-12-13T05:11:32.942Z,96865.12
2018-12-13T05:16:27.555Z,96855.14
2018-12-13T05:21:22.160Z,96851.44
2018-12-13T05:26:16.810Z,96840.77
2018-12-13T05:31:11.545Z,96839.13
2018-12-13T05:36:06.158Z,96828.53
2018-12-13T05:41:00.815Z,96819.39
2018-12-13T05:45:55.443Z,96824.41
2018-12-13T05:50:50.068Z,96813.81
2018-12-13T05:55:44.658Z,96821.20
2018-12-13T06:00:39.277Z,96815.23
2018-12-13T06:05:33.870Z,96822.59
2018-12-13T06:10:28.544Z,96820.41
2018-12-13T06:15:23.246Z,96821.17
2018-12-13T06:20:17.871Z,96823.75
2018-12-13T06:25:12.682Z,96818.62
2018-12-13T06:30:08.465Z,96820.47
2018-12-13T06:35:03.294Z,96821.30
2018-12-13T06:39:57.920Z,96818.91
2018-12-13T06:44:52.619Z,96815.52
2018-12-13T06:49:47.424Z,96822.70
2018-12-13T06:54:42.064Z,96818.45
2018-12-13T06:59:36.778Z,96825.67
2018-12-13T07:04:31.431Z,96831.25
2018-12-13T07:09:26.073Z,96826.47
2018-12-13T07:14:21.343Z,96822.32
2018-12-13T07:19:16.021Z,96827.59
2018-12-13T07:24:10.728Z,96818.55
2018-12-13T07:29:05.491Z,96826.11
2018-12-13T07:34:00.158Z,96830.92
2018-12-13T07:38:54.858Z,96823.95
2018-12-13T07:43:49.500Z,96826.94
2018-12-13T07:48:44.160Z,96823.53
2018-12-13T07:53:38.776Z,96829.49
2018-12-13T07:58:33.461Z,96817.92
2018-12-13T08:03:28.099Z,96817.78
2018-12-13T08:08:22.717Z,96815.87
2018-12-13T08:13:17.338Z,96817.48
2018-12-13T08:18:13.758Z,96811.37
2018-12-13T08:23:08.668Z,96812.11
2018-12-13T08:28:14.180Z,96802.17
2018-12-13T08:33:14.216Z,96811.19
2018-12-13T08:38:13.321Z,96807.64
2018-12-13T08:43:16.675Z,96805.06
2018-12-13T08:48:26.421Z,96810.27
2018-12-13T08:58:59.655Z,96792.59
2018-12-13T09:03:54.646Z,96793.81
2018-12-13T09:08:55.100Z,96794.91
2018-12-13T09:13:50.023Z,96789.73
2018-12-13T09:18:51.051Z,96779.13
2018-12-13T09:23:46.408Z,96770.98
2018-12-13T09:28:41.412Z,96776.26
2018-12-13T09:33:37.595Z,96774.84
2018-12-13T09:38:32.496Z,96776.56
2018-12-13T09:43:27.391Z,96764.81
2018-12-13T09:48:22.618Z,96758.88
2018-12-13T09:53:17.447Z,96764.95
2018-12-13T09:58:12.308Z,96763.16
2018-12-13T10:03:07.155Z,96746.22
2018-12-13T10:08:02.079Z,96740.97
2018-12-13T10:12:56.935Z,96732.45
2018-12-13T10:17:51.929Z,96727.64
2018-12-13T10:22:58.488Z,96727.02
2018-12-13T10:28:00.318Z,96710.95
2018-12-13T10:32:55.329Z,96707.75
2018-12-13T10:37:50.092Z,96705.55
2018-12-13T10:42:45.072Z,96695.45
2018-12-13T10:47:39.983Z,96690.20
2018-12-13T10:52:37.684Z,96688.89
2018-12-13T10:57:39.397Z,96683.97
2018-12-13T11:08:09.737Z,96686.89
2018-12-13T11:13:05.764Z,96685.31
2018-12-13T11:18:00.776Z,96674.17
2018-12-13T11:22:55.687Z,96673.61
2018-12-13T11:31:01.449Z,96672.65
2018-12-13T11:35:56.771Z,96660.91
2018-12-13T11:42:10.871Z,96664.83
2018-12-13T11:47:05.815Z,96655.14
2018-12-13T11:52:00.773Z,96659.58
2018-12-13T11:56:55.808Z,96650.98
2018-12-13T12:01:50.704Z,96651.10
2018-12-13T12:06:45.515Z,96644.39
2018-12-13T12:11:40.334Z,96641.42
2018-12-13T12:16:35.239Z,96642.09
2018-12-13T12:21:30.018Z,96645.55
2018-12-13T12:26:24.794Z,96635.45
2018-12-13T12:31:19.784Z,96632.70
2018-12-13T12:36:14.720Z,96638.14
2018-12-13T12:41:09.623Z,96639.34
2018-12-13T12:46:04.419Z,96641.91
2018-12-13T12:50:59.294Z,96629.91
2018-12-13T12:55:54.206Z,96624.09
2018-12-13T13:00:49.344Z,96629.38
2018-12-13T13:05:57.425Z,96625.63
2018-12-13T13:28:43.491Z,96628.06
2018-12-13T13:33:42.893Z,96627.53
2018-12-13T13:38:37.912Z,96641.08
2018-12-13T13:48:48.743Z,96628.09
2018-12-13T15:15:01.339Z,96653.12
2018-12-13T15:19:56.205Z,96646.73
2018-12-13T15:24:52.784Z,96653.90
2018-12-13T15:29:54.341Z,96661.17
2018-12-13T15:34:54.316Z,96658.53
2018-12-13T15:39:57.054Z,96669.30
2018-12-13T16:06:41.484Z,96684.34
2018-12-13T16:17:23.231Z,96686.56
2018-12-13T16:22:30.509Z,96697.09
2018-12-13T16:27:26.337Z,96691.20
2018-12-13T16:32:21.207Z,96694.89
2018-12-13T16:37:16.139Z,96694.89
2018-12-13T16:42:11.134Z,96688.89
2018-12-13T16:47:06.014Z,96694.13
2018-12-13T16:57:23.560Z,96676.51
2018-12-13T17:03:17.243Z,96688.52
2018-12-13T17:08:13.587Z,96691.63
2018-12-13T17:13:19.822Z,96695.80
2018-12-13T17:18:14.951Z,96691.94
2018-12-13T17:23:10.570Z,96697.28
2018-12-13T17:33:22.865Z,96691.22
2018-12-13T17:38:22.678Z,96688.19
2018-12-13T17:43:27.770Z,96688.38
2018-12-13T17:48:24.529Z,96697.06
2018-12-13T17:53:22.421Z,96694.94
2018-12-13T17:58:17.924Z,96697.20
2018-12-13T18:03:20.840Z,96706.80
2018-12-13T18:08:19.336Z,96704.67
2018-12-13T18:13:23.206Z,96694.66
2018-12-13T18:18:18.207Z,96694.38
2018-12-13T18:23:20.552Z,96701.00
2018-12-13T18:28:17.202Z,96691.02
2018-12-13T18:33:26.913Z,96705.97
2018-12-13T18:38:28.783Z,96695.98
2018-12-13T18:43:23.763Z,96697.67
2018-12-13T18:48:25.636Z,96695.88
2018-12-13T18:53:20.831Z,96691.28
2018-12-13T19:03:40.803Z,96702.68
2018-12-13T19:13:52.198Z,96716.48
2018-12-13T19:24:09.975Z,96714.47
2018-12-13T19:29:10.707Z,96710.48
2018-12-13T19:34:44.079Z,96715.35
2018-12-13T19:39:43.373Z,96716.87
2018-12-13T19:44:38.861Z,96724.23
2018-12-13T19:49:49.173Z,96737.00
2018-12-13T20:06:34.125Z,96749.92
2018-12-13T20:49:21.000Z,96769.35
2018-12-13T21:05:41.092Z,96778.06
2018-12-13T21:10:41.779Z,96779.11
2018-12-13T21:15:38.113Z,96780.48
2018-12-13T21:20:33.218Z,96782.64
2018-12-13T21:25:27.893Z,96781.20
2018-12-13T21:30:22.626Z,96781.94
2018-12-13T21:35:17.511Z,96787.33
2018-12-13T21:40:12.335Z,96786.05
2018-12-13T21:45:07.610Z,96785.42
2018-12-13T21:50:04.494Z,96787.90
2018-12-13T21:55:00.275Z,96779.95
2018-12-13T21:59:55.012Z,96780.89
2018-12-13T22:04:49.755Z,96791.55
2018-12-13T22:09:44.454Z,96791.67
2018-12-13T22:14:39.169Z,96800.18
2018-12-13T22:19:33.883Z,96798.08
2018-12-13T22:24:28.616Z,96801.66
2018-12-13T22:29:23.297Z,96801.65
2018-12-13T22:34:18.435Z,96792.36
2018-12-13T22:39:13.251Z,96795.11
2018-12-13T22:44:08.164Z,96803.80
2018-12-13T22:49:02.941Z,96810.95
2018-12-13T22:53:57.659Z,96815.80
2018-12-13T22:58:52.487Z,96813.41
2018-12-13T23:03:47.287Z,96820.14
2018-12-13T23:08:42.020Z,96818.98
2018-12-13T23:13:36.794Z,96826.88
2018-12-13T23:18:31.534Z,96818.80
2018-12-13T23:23:26.993Z,96823.85
2018-12-13T23:28:21.687Z,96819.25
2018-12-13T23:33:16.369Z,96816.89
2018-12-13T23:38:11.150Z,96824.37
2018-12-13T23:43:05.999Z,96831.30
2018-12-13T23:48:01.059Z,96831.58
2018-12-13T23:52:55.718Z,96834.25
2018-12-13T23:57:51.524Z,96837.29
